x

Buoy B01 - Western Maine Shelf (44030) Wave Buoy

6:04 - Tue 24th May 2016 All times are EDT. -4 hours from GMT.

  • Sig Wave height 4.6ft
  • Peak Period 8s
  • Wind
    11mph, 13mph gusts
  • Sea Temp 50°f
  • Luft Temp 49°f
  • Sea Pressure 1014.1mb
  • Buoy B01 - Western Maine Shelf
  • Buoy B01 - Western Maine Shelf

More Historic Weather Station data

Upgrade to MSW Pro to gain access to the past 30 days of data for over 8000 Wavebouys and Weather Stations around the globe.

Join Pro

Comparision Forecast

View Surf forecast
   
Di 05/24 6:04 4.5ft 8s 11 13 mph 1014.1mb 50f 49f
5:04 4ft 11s 11 13 mph 1014mb 49f 49f
4:04 4ft 11s 13 16 mph 1014mb 49f 49f
3:04 4.5ft 11s 11 16 mph 1014mb 49f 49f
2:04 3.5ft 5s 11 13 mph 1014.1mb 49f 49f
1:04 5ft 11s 13 16 mph 1014.1mb 49f 49f
12:04 3ft 4s 13 16 mph 1014.1mb 49f 49f
11:04 4.5ft 11s 13 16 mph 1014.1mb 49f 49f
10:04 4.5ft 11s 16 18 mph 1013.8mb 49f 50f
9:04 5ft 11s 16 18 mph 1013.5mb 50f 50f
8:04 5.5ft 11s 13 16 mph 1013.7mb 49f 50f
5:04 4ft 8s 18 20 mph 1012.6mb 50f 51f
4:04 4ft 11s 13 16 mph 1013.1mb 50f 52f
3:04 3ft 11s 11 13 mph 1012.6mb 51f 52f
2:04 3.5ft 11s 9 11 mph 1013.1mb 51f 53f
1:04 4ft 11s 9 11 mph 1013.5mb 52f 53f
12:04 4ft 11s 9 11 mph 1013.5mb 53f 53f
Mo 05/23 11:04 4ft 11s 9
mph
1013.5mb 54f 53f
10:04 4.5ft 8s 2 4 mph 1013.7mb 54f 53f
9:04 5ft 11s 7 9 mph 1013.3mb 54f 53f
8:04 4.5ft 11s 4
mph
1012.3mb 54f 54f
7:04 4.5ft 11s 7 9 mph 1011.8mb 53f 55f
6:04 5ft 11s 7
mph
1011.9mb 54f 56f
5:04 4.5ft 11s 7 9 mph 1011.4mb 53f 56f
4:04 4ft 11s 7
mph
1011.6mb 54f 58f
3:04 4.5ft 11s 4 7 mph 1011.6mb 53f 59f
2:04 3.5ft 11s 7
mph
1011.6mb 54f 58f
1:04 4.5ft 11s 7
mph
1012.3mb 53f 60f
12:04 4.5ft 11s 4
mph
1012.4mb 52f 57f
11:04 4ft 11s 4
mph
1012.7mb 51f 56f
10:04 5ft 11s 2
mph
1012.9mb 51f 55f
9:04 4.5ft 11s 2 4 mph 1013.2mb 50f 53f
8:04 5ft 11s 7
mph
1013.2mb 50f 51f
7:04 4.5ft 11s 4 7 mph 1013mb 50f 51f
6:04 5ft 11s 4
mph
1012.9mb 50f 51f
5:04 6ft 11s 4 7 mph 1012mb 50f 51f
4:04 4.5ft 11s 4 7 mph 1011.4mb 50f 50f
3:04 4.5ft 11s 4 7 mph 1011.4mb 50f 50f
2:04 4.5ft 11s 7
mph
1011.6mb 50f 51f
1:04 4.5ft 11s 7
mph
1011.9mb 50f 51f
12:04 4.5ft 11s 4 7 mph 1011.8mb 50f 51f
So 05/22 11:04 4ft 11s 4 9 mph 1011.8mb 51f 51f
10:04 4.5ft 11s 4
mph
1011.7mb 51f 51f
9:04 4.5ft 11s 4
mph
1011mb 51f 52f
8:04 3.5ft 11s 4
mph
1011.1mb 51f 52f
7:04 2.5ft 11s 2
mph
1010.8mb 51f 55f
6:04 1.6ft 11s 4
mph
1010.2mb 52f 54f
5:04 1.6ft 8s 4
mph
1010mb 52f 53f
4:04 1.3ft 8s 4 7 mph 1009.9mb 51f 53f
3:04 1.6ft 8s 4 7 mph 1010.4mb 51f 52f
2:04 1.6ft 8s 4
mph
1010.7mb 50f 52f
1:04 1.6ft 8s 2 4 mph 1010.8mb 49f 52f
12:04 1.3ft 8s 4
mph
1011mb 50f 51f
11:04 1.6ft 8s 2 4 mph 1011mb 49f 51f
10:04 1.6ft 8s 2 4 mph 1010.7mb 49f 52f
9:04 2ft 8s 4 7 mph 1010.7mb 48f 51f
8:04 2ft 8s 2 4 mph 1010.7mb 48f 50f
7:04 2ft 8s 4 7 mph 1010.3mb 48f 50f
6:04 1.6ft 8s 9
mph
1010.3mb 49f 49f
5:04 2ft 8s 4
mph
1010mb 49f 50f
4:04 2ft 8s 4
mph
1010.5mb 48f 50f
3:04 2.5ft 8s 9
mph
1011.1mb 49f 50f
2:04 2.5ft 11s 9 11 mph 1011.4mb 49f 51f
1:04 2.5ft 8s 11
mph
1011.9mb 48f 51f
12:04 2.5ft 8s 9 11 mph 1012.6mb 48f 52f
Sa 05/21 11:04 3ft 5s 11 13 mph 1013.2mb 48f 52f
10:04 3.5ft 8s 13 16 mph 1013.7mb 48f 52f
9:04 3.5ft 8s 13 16 mph 1013.9mb 48f 52f
8:04 3.5ft 8s 13 16 mph 1013.8mb 48f 53f
7:04 3ft 4s 16 18 mph 1014.2mb 49f 53f
6:04 3.5ft 8s 18 22 mph 1014.6mb 49f 54f
5:04 3ft 8s 16 18 mph 1015.1mb 49f 53f
4:04  -   -  16 18 mph 1015.6mb 50f 55f
3:04 2.5ft 8s 13 16 mph 1016.3mb 50f 53f
2:04 2ft 8s 13
mph
1016.8mb 50f 53f
1:04 2.5ft 11s 11 13 mph 1017.3mb 50f 54f
12:04 2.5ft 8s 9 11 mph 1018.2mb 50f 53f
11:04 2.5ft 8s 9
mph
1018.5mb 49f 52f
10:04 2ft 8s 9
mph
1018.8mb 49f 52f
9:04 3ft 8s 9
mph
1019.5mb 49f 51f
8:04 3ft 8s 9
mph
1019.9mb 49f 51f
7:04 2.5ft 11s 7 9 mph 1020mb 49f 51f
6:04 2.5ft 8s 7
mph
1019.9mb 49f 51f
5:04 2.5ft 8s 7
mph
1019.9mb 49f 51f
4:04 2.5ft 8s 7 9 mph 1020mb 49f 52f
3:04 2.5ft 8s 9
mph
1020mb 49f 53f
2:04 2.5ft 8s 9 11 mph 1020.3mb 49f 53f
1:04 2.5ft 8s 9 11 mph 1020.5mb 49f 53f
12:04 2.5ft 8s 9 11 mph 1020.4mb 49f 52f